Time;durP1;ratioP1;P1;durP2;ratioP2;P2;SDS_P1;SDS_P2;PMS_P1;PMS_P2;Temp;Humidity;BMP_temperature;BMP_pressure;BME280_temperature;BME280_humidity;BME280_pressure;Samples;Min_cycle;Max_cycle;Signal;HPM_P1;HPM_P2
2023/03/13 00:01:02;;;;;;;20.95;4.75;;;;;;;;;;5075652;28;20044;-83
2023/03/13 00:03:29;;;;;;;16.85;4.80;;;;;;;;;;5074775;28;20047;-84
2023/03/13 00:05:57;;;;;;;17.20;4.20;;;;;;;;;;5076423;28;20048;-84
2023/03/13 00:08:25;;;;;;;21.35;4.63;;;;;;;;;;5074852;28;20044;-83
2023/03/13 00:10:52;;;;;;;23.02;4.78;;;;;;;;;;5076411;28;20056;-84
2023/03/13 00:13:19;;;;;;;21.35;4.63;;;;;;;;;;5076377;28;20140;-83
2023/03/13 00:15:47;;;;;;;16.40;5.13;;;;;;;;;;5076225;28;20415;-83
2023/03/13 00:18:14;;;;;;;20.60;4.70;;;;;;;;;;5074955;28;20385;-83
2023/03/13 00:20:41;;;;;;;25.15;4.78;;;;;;;;;;5076268;28;20407;-83
2023/03/13 00:23:08;;;;;;;28.15;5.10;;;;;;;;;;5074556;28;20514;-83
2023/03/13 00:25:35;;;;;;;26.90;6.22;;;;;;;;;;5074994;28;20052;-84
2023/03/13 00:28:02;;;;;;;35.42;6.47;;;;;;;;;;5074700;28;20056;-84
2023/03/13 00:30:30;;;;;;;24.70;5.13;;;;;;;;;;5074809;28;20074;-84
2023/03/13 00:32:57;;;;;;;27.70;5.57;;;;;;;;;;5074811;28;20132;-83
2023/03/13 00:35:24;;;;;;;26.80;5.75;;;;;;;;;;5074429;28;20055;-84
2023/03/13 00:37:52;;;;;;;27.75;5.72;;;;;;;;;;5075746;28;20044;-83
2023/03/13 00:40:19;;;;;;;25.38;4.70;;;;;;;;;;5074722;28;20056;-83
2023/03/13 00:42:46;;;;;;;18.75;5.07;;;;;;;;;;5074724;28;20083;-84
2023/03/13 00:45:13;;;;;;;25.40;4.13;;;;;;;;;;5075978;28;20059;-84
2023/03/13 00:47:40;;;;;;;18.95;3.92;;;;;;;;;;5075672;28;20046;-85
2023/03/13 00:50:08;;;;;;;22.60;4.28;;;;;;;;;;5075455;28;20503;-84
2023/03/13 00:52:35;;;;;;;14.40;3.47;;;;;;;;;;5074679;28;20048;-83
2023/03/13 00:55:03;;;;;;;21.42;4.47;;;;;;;;;;5075829;28;20079;-84
2023/03/13 00:57:30;;;;;;;15.73;4.15;;;;;;;;;;5074473;28;20049;-84
2023/03/13 00:59:57;;;;;;;22.75;3.97;;;;;;;;;;5076149;28;20094;-83
2023/03/13 01:02:24;;;;;;;13.60;3.58;;;;;;;;;;5086298;28;20051;-85
2023/03/13 01:04:53;;;;;;;23.20;3.72;;;;;;;;;;5075386;28;20048;-84
2023/03/13 01:07:20;;;;;;;18.85;3.80;;;;;;;;;;5074257;28;20416;-84
2023/03/13 01:09:47;;;;;;;21.45;3.45;;;;;;;;;;5075328;28;20045;-83
2023/03/13 01:12:14;;;;;;;16.33;3.45;;;;;;;;;;5074140;28;20063;-83
2023/03/13 01:14:41;;;;;;;19.15;4.28;;;;;;;;;;5073709;28;20051;-83
2023/03/13 01:17:08;;;;;;;16.70;4.05;;;;;;;;;;5073747;28;20472;-84
2023/03/13 01:19:36;;;;;;;18.33;3.83;;;;;;;;;;5075147;28;20118;-84
2023/03/13 01:22:03;;;;;;;14.82;3.45;;;;;;;;;;5073677;28;20498;-84
2023/03/13 01:24:30;;;;;;;13.65;3.42;;;;;;;;;;5075085;28;20060;-84
2023/03/13 01:26:58;;;;;;;19.52;4.03;;;;;;;;;;5075018;28;20047;-84
2023/03/13 01:29:25;;;;;;;18.98;3.85;;;;;;;;;;5073649;28;20062;-84
2023/03/13 01:31:52;;;;;;;17.98;3.90;;;;;;;;;;5073438;28;20153;-84
2023/03/13 01:34:19;;;;;;;19.20;3.45;;;;;;;;;;5073573;28;20044;-84
2023/03/13 01:36:49;;;;;;;13.93;3.30;;;;;;;;;;5074949;28;20052;-84
2023/03/13 01:39:16;;;;;;;19.25;4.00;;;;;;;;;;5074795;28;20658;-84
2023/03/13 01:41:43;;;;;;;15.68;3.90;;;;;;;;;;5074792;28;20048;-83
2023/03/13 01:44:22;;;;;;;18.45;3.63;;;;;;;;;;5073165;28;20055;-84
2023/03/13 01:46:49;;;;;;;18.20;3.47;;;;;;;;;;5073483;28;20087;-84
2023/03/13 01:49:37;;;;;;;18.58;3.78;;;;;;;;;;5073341;28;20048;-84
2023/03/13 01:52:14;;;;;;;18.58;3.70;;;;;;;;;;5074584;28;20059;-84
2023/03/13 01:54:50;;;;;;;18.17;3.85;;;;;;;;;;5074398;28;20056;-83
2023/03/13 01:57:20;;;;;;;17.55;3.35;;;;;;;;;;5073300;28;20048;-84
2023/03/13 01:59:53;;;;;;;19.38;3.50;;;;;;;;;;5073536;28;20592;-83
2023/03/13 02:02:21;;;;;;;19.48;3.40;;;;;;;;;;5074087;28;20089;-84
2023/03/13 02:04:52;;;;;;;13.18;3.13;;;;;;;;;;5073872;28;20056;-84
2023/03/13 02:07:23;;;;;;;19.80;3.50;;;;;;;;;;5073017;28;20151;-84
2023/03/13 02:09:53;;;;;;;16.33;3.20;;;;;;;;;;5073125;28;20059;-84
2023/03/13 02:12:30;;;;;;;17.83;3.45;;;;;;;;;;5074004;28;20048;-84
2023/03/13 02:14:59;;;;;;;17.73;3.85;;;;;;;;;;5084853;28;20044;-85
2023/03/13 02:17:26;;;;;;;20.20;3.75;;;;;;;;;;5076303;28;20056;-84
2023/03/13 02:19:53;;;;;;;19.38;4.35;;;;;;;;;;5073701;28;20052;-84
2023/03/13 02:22:28;;;;;;;16.52;3.25;;;;;;;;;;5072996;28;20063;-84
2023/03/13 02:25:06;;;;;;;20.23;3.35;;;;;;;;;;5072810;28;20051;-84
2023/03/13 02:27:34;;;;;;;13.07;2.92;;;;;;;;;;5073885;28;20438;-84
2023/03/13 02:30:01;;;;;;;22.27;3.58;;;;;;;;;;5073765;28;20048;-84
2023/03/13 02:32:29;;;;;;;19.25;3.40;;;;;;;;;;5072473;28;20048;-84
2023/03/13 02:35:01;;;;;;;16.88;3.58;;;;;;;;;;5072447;28;20049;-83
2023/03/13 02:37:29;;;;;;;15.48;3.10;;;;;;;;;;5072676;28;20059;-84
2023/03/13 02:39:59;;;;;;;17.90;3.78;;;;;;;;;;5072530;28;20053;-86
2023/03/13 02:42:27;;;;;;;19.25;3.53;;;;;;;;;;5072425;28;20053;-84
2023/03/13 02:44:54;;;;;;;23.52;3.78;;;;;;;;;;5072049;28;20158;-84
2023/03/13 02:47:22;;;;;;;17.75;3.47;;;;;;;;;;5072429;28;20087;-85
2023/03/13 02:49:49;;;;;;;14.48;3.00;;;;;;;;;;5073312;28;20045;-84
2023/03/13 02:52:25;;;;;;;13.40;3.60;;;;;;;;;;5072196;28;20399;-84
2023/03/13 02:54:55;;;;;;;14.68;4.47;;;;;;;;;;5073360;28;20411;-84
2023/03/13 02:57:23;;;;;;;16.75;5.28;;;;;;;;;;5072102;28;20135;-85
2023/03/13 02:59:50;;;;;;;16.42;4.20;;;;;;;;;;5072091;28;20053;-84
2023/03/13 03:02:17;;;;;;;14.85;3.10;;;;;;;;;;5072410;28;20491;-85
2023/03/13 03:04:44;;;;;;;18.38;4.40;;;;;;;;;;5072310;28;20088;-84
2023/03/13 03:07:12;;;;;;;15.35;2.88;;;;;;;;;;5073043;28;20041;-84
2023/03/13 03:09:39;;;;;;;13.52;3.08;;;;;;;;;;5071884;28;20510;-83
2023/03/13 03:12:06;;;;;;;16.50;3.50;;;;;;;;;;5072976;28;20055;-84
2023/03/13 03:14:34;;;;;;;19.45;4.30;;;;;;;;;;5073316;28;20056;-85
2023/03/13 03:17:01;;;;;;;16.13;3.50;;;;;;;;;;5072936;28;20044;-84
2023/03/13 03:19:28;;;;;;;15.82;3.72;;;;;;;;;;5071885;28;20052;-84
2023/03/13 03:21:55;;;;;;;13.57;3.30;;;;;;;;;;5071793;28;20048;-84
2023/03/13 03:24:22;;;;;;;13.60;3.25;;;;;;;;;;5071109;28;20074;-84
2023/03/13 03:26:50;;;;;;;12.43;3.30;;;;;;;;;;5072387;28;20044;-84
2023/03/13 03:29:17;;;;;;;12.70;3.20;;;;;;;;;;5084815;28;20463;-83
2023/03/13 03:31:44;;;;;;;18.15;3.85;;;;;;;;;;5072931;28;20049;-83
2023/03/13 03:34:12;;;;;;;16.60;3.55;;;;;;;;;;5071640;28;20051;-83
2023/03/13 03:36:39;;;;;;;12.38;3.60;;;;;;;;;;5072666;28;20055;-84
2023/03/13 03:39:06;;;;;;;11.40;2.95;;;;;;;;;;5071627;28;20051;-84
2023/03/13 03:41:34;;;;;;;8.55;3.40;;;;;;;;;;5071483;28;20049;-84
2023/03/13 03:44:01;;;;;;;11.25;3.00;;;;;;;;;;5071571;28;20041;-84
2023/03/13 03:46:29;;;;;;;14.88;4.25;;;;;;;;;;5071456;28;20052;-84
2023/03/13 03:48:56;;;;;;;12.73;2.95;;;;;;;;;;5071519;28;20041;-84
2023/03/13 03:51:23;;;;;;;11.88;2.85;;;;;;;;;;5072474;28;20480;-83
2023/03/13 03:53:50;;;;;;;12.43;2.88;;;;;;;;;;5071674;28;20056;-85
2023/03/13 03:56:17;;;;;;;13.57;3.47;;;;;;;;;;5071674;28;20484;-83
2023/03/13 03:58:45;;;;;;;14.80;3.13;;;;;;;;;;5072574;28;20052;-84
2023/03/13 04:01:12;;;;;;;16.85;3.03;;;;;;;;;;5071420;28;20139;-83
2023/03/13 04:03:39;;;;;;;20.65;3.55;;;;;;;;;;5071325;28;20053;-83
2023/03/13 04:06:06;;;;;;;16.02;3.00;;;;;;;;;;5071167;28;20049;-84
2023/03/13 04:08:34;;;;;;;10.23;2.90;;;;;;;;;;5072670;28;20124;-84
2023/03/13 04:11:01;;;;;;;12.00;2.70;;;;;;;;;;5072263;28;20044;-83
2023/03/13 04:13:29;;;;;;;16.15;3.42;;;;;;;;;;5071306;28;20072;-83
2023/03/13 04:15:56;;;;;;;13.95;2.45;;;;;;;;;;5071108;28;20040;-84
2023/03/13 04:18:23;;;;;;;13.00;2.83;;;;;;;;;;5072194;28;20455;-83
2023/03/13 04:20:59;;;;;;;15.23;3.00;;;;;;;;;;5071294;28;20071;-87
2023/03/13 04:23:26;;;;;;;11.40;2.83;;;;;;;;;;5071127;28;20048;-84
2023/03/13 04:25:53;;;;;;;11.38;2.78;;;;;;;;;;5070585;28;20535;-83
2023/03/13 04:28:20;;;;;;;12.85;2.67;;;;;;;;;;5070507;28;20052;-84
2023/03/13 04:30:47;;;;;;;11.75;2.40;;;;;;;;;;5071237;28;20049;-84
2023/03/13 04:33:15;;;;;;;8.38;2.50;;;;;;;;;;5072102;28;20058;-84
2023/03/13 04:35:42;;;;;;;15.25;3.17;;;;;;;;;;5072117;28;20136;-84
2023/03/13 04:38:10;;;;;;;13.13;2.80;;;;;;;;;;5075439;28;20056;-84
2023/03/13 04:40:37;;;;;;;13.50;3.25;;;;;;;;;;5076476;28;20059;-83
2023/03/13 04:43:04;;;;;;;9.48;2.15;;;;;;;;;;5080444;28;20144;-84
2023/03/13 04:45:31;;;;;;;7.93;2.20;;;;;;;;;;5075468;28;20503;-84
2023/03/13 04:47:59;;;;;;;12.05;2.42;;;;;;;;;;5074560;28;20044;-84
2023/03/13 04:50:26;;;;;;;8.52;2.50;;;;;;;;;;5074960;28;20049;-84
2023/03/13 04:52:53;;;;;;;13.55;2.70;;;;;;;;;;5075515;28;20047;-85
2023/03/13 04:55:20;;;;;;;8.10;1.98;;;;;;;;;;5075305;28;20055;-84
2023/03/13 04:57:47;;;;;;;12.30;2.67;;;;;;;;;;5074180;28;20059;-84
2023/03/13 05:00:15;;;;;;;15.10;3.05;;;;;;;;;;5074194;28;20476;-85
2023/03/13 05:02:42;;;;;;;10.20;2.55;;;;;;;;;;5074555;28;20067;-84
2023/03/13 05:05:09;;;;;;;6.43;2.70;;;;;;;;;;5075466;28;20416;-84
2023/03/13 05:07:36;;;;;;;13.05;2.60;;;;;;;;;;5074967;28;20492;-84
2023/03/13 05:10:04;;;;;;;9.85;2.55;;;;;;;;;;5075079;28;20045;-84
2023/03/13 05:12:31;;;;;;;8.93;1.95;;;;;;;;;;5074062;28;20103;-84
2023/03/13 05:14:58;;;;;;;10.77;2.60;;;;;;;;;;5075402;28;20045;-84
2023/03/13 05:17:26;;;;;;;11.90;2.22;;;;;;;;;;5075535;28;20083;-84
2023/03/13 05:19:53;;;;;;;10.85;2.55;;;;;;;;;;5075136;28;20052;-84
2023/03/13 05:22:20;;;;;;;10.98;2.55;;;;;;;;;;5073900;28;20067;-84
2023/03/13 05:24:48;;;;;;;12.27;2.95;;;;;;;;;;5073878;28;20407;-83
2023/03/13 05:27:15;;;;;;;11.82;2.42;;;;;;;;;;5073775;28;20495;-84
2023/03/13 05:29:42;;;;;;;11.25;2.17;;;;;;;;;;5074942;28;20055;-84
2023/03/13 05:32:09;;;;;;;11.25;2.45;;;;;;;;;;5073993;28;20053;-84
2023/03/13 05:34:36;;;;;;;7.70;2.50;;;;;;;;;;5073905;28;20049;-85
2023/03/13 05:37:03;;;;;;;10.32;2.55;;;;;;;;;;5074918;28;20385;-84
2023/03/13 05:39:32;;;;;;;12.82;2.92;;;;;;;;;;5073690;28;20044;-89
2023/03/13 05:41:59;;;;;;;10.07;2.17;;;;;;;;;;5073923;28;20396;-84
2023/03/13 05:44:26;;;;;;;7.22;1.75;;;;;;;;;;5073549;28;20438;-84
2023/03/13 05:46:53;;;;;;;12.02;3.03;;;;;;;;;;5073051;28;20048;-84
2023/03/13 05:49:21;;;;;;;8.35;2.35;;;;;;;;;;5073445;28;20140;-83
2023/03/13 05:51:48;;;;;;;10.38;2.30;;;;;;;;;;5074573;28;20503;-84
2023/03/13 05:54:15;;;;;;;9.75;2.40;;;;;;;;;;5084324;28;20064;-83
2023/03/13 05:56:43;;;;;;;9.98;2.17;;;;;;;;;;5075007;28;20052;-83
2023/03/13 05:59:11;;;;;;;5.72;1.85;;;;;;;;;;5073183;28;20045;-84
2023/03/13 06:01:38;;;;;;;8.32;2.13;;;;;;;;;;5074008;28;20048;-83
2023/03/13 06:04:05;;;;;;;9.13;2.00;;;;;;;;;;5056525;28;20059;-85
2023/03/13 06:06:32;;;;;;;9.02;1.83;;;;;;;;;;5056220;28;20048;-84
2023/03/13 06:09:00;;;;;;;7.13;1.90;;;;;;;;;;5074142;28;20040;-83
2023/03/13 06:11:27;;;;;;;8.57;1.80;;;;;;;;;;5056367;28;20053;-83
2023/03/13 06:13:54;;;;;;;4.93;1.60;;;;;;;;;;5056800;28;20050;-83
2023/03/13 06:16:21;;;;;;;4.93;1.60;;;;;;;;;;5056058;28;20056;-83
2023/03/13 06:18:48;;;;;;;6.40;1.88;;;;;;;;;;5056526;28;20095;-85
2023/03/13 06:21:15;;;;;;;5.50;1.40;;;;;;;;;;5056171;28;20087;-84
2023/03/13 06:23:43;;;;;;;6.05;1.52;;;;;;;;;;5056208;28;20123;-83
2023/03/13 06:26:10;;;;;;;6.70;1.27;;;;;;;;;;5055889;28;20048;-84
2023/03/13 06:28:37;;;;;;;5.07;1.65;;;;;;;;;;5073740;28;20049;-84
2023/03/13 06:31:06;;;;;;;2.95;1.00;;;;;;;;;;5073572;28;20084;-86
2023/03/13 06:33:33;;;;;;;2.30;1.00;;;;;;;;;;5056099;28;20044;-83
2023/03/13 06:36:01;;;;;;;5.45;1.00;;;;;;;;;;5073889;28;20067;-83
2023/03/13 06:38:29;;;;;;;2.97;0.77;;;;;;;;;;5073783;28;20044;-84
2023/03/13 06:40:56;;;;;;;1.95;0.80;;;;;;;;;;5055915;28;20142;-83
2023/03/13 06:43:23;;;;;;;3.13;0.90;;;;;;;;;;5073479;28;20047;-88
2023/03/13 06:45:50;;;;;;;5.38;0.70;;;;;;;;;;5055510;28;20052;-83
2023/03/13 06:48:18;;;;;;;4.00;0.82;;;;;;;;;;5073717;28;20131;-84
2023/03/13 06:50:45;;;;;;;3.38;0.52;;;;;;;;;;5055675;28;20053;-84
2023/03/13 06:53:18;;;;;;;3.35;0.80;;;;;;;;;;5056180;28;20407;-85
2023/03/13 06:55:45;;;;;;;1.98;0.60;;;;;;;;;;5073505;28;20045;-84
2023/03/13 06:58:12;;;;;;;1.85;0.40;;;;;;;;;;5073356;28;20052;-84
2023/03/13 07:00:56;;;;;;;2.38;0.60;;;;;;;;;;5073251;28;20056;-84
2023/03/13 07:03:24;;;;;;;2.00;0.60;;;;;;;;;;5055564;28;20048;-84
2023/03/13 07:05:55;;;;;;;2.55;0.90;;;;;;;;;;5055986;28;20415;-85
2023/03/13 07:08:24;;;;;;;6.03;0.60;;;;;;;;;;5072026;28;20068;-85
2023/03/13 07:10:51;;;;;;;3.38;0.98;;;;;;;;;;5056160;28;20490;-90
2023/03/13 07:13:20;;;;;;;2.25;1.02;;;;;;;;;;5055901;28;20404;-84
2023/03/13 07:15:47;;;;;;;2.97;0.75;;;;;;;;;;5073267;28;20044;-84
2023/03/13 07:18:15;;;;;;;1.50;0.70;;;;;;;;;;5055464;28;20052;-84
2023/03/13 07:20:42;;;;;;;1.85;0.57;;;;;;;;;;5072970;28;20093;-84
2023/03/13 07:23:10;;;;;;;2.97;1.27;;;;;;;;;;5055225;28;20048;-84
2023/03/13 07:25:37;;;;;;;10.80;1.33;;;;;;;;;;5054896;28;20048;-84
2023/03/13 07:28:04;;;;;;;12.57;1.50;;;;;;;;;;5072948;28;20469;-85
2023/03/13 07:30:31;;;;;;;2.75;0.70;;;;;;;;;;5055611;28;20389;-85
2023/03/13 07:32:59;;;;;;;1.38;0.75;;;;;;;;;;5055755;28;20083;-86
2023/03/13 07:35:26;;;;;;;2.47;1.20;;;;;;;;;;5055544;28;20512;-85
2023/03/13 07:37:54;;;;;;;2.65;1.23;;;;;;;;;;5055582;28;20048;-86
2023/03/13 07:40:21;;;;;;;3.00;1.27;;;;;;;;;;5055511;28;20053;-87
2023/03/13 07:42:48;;;;;;;4.20;0.93;;;;;;;;;;5055777;28;20063;-86
2023/03/13 07:45:15;;;;;;;3.25;1.10;;;;;;;;;;5055330;28;20084;-87
2023/03/13 07:47:42;;;;;;;4.55;1.10;;;;;;;;;;5073438;28;20495;-85
2023/03/13 07:50:10;;;;;;;4.72;1.48;;;;;;;;;;5055322;28;20053;-88
2023/03/13 07:52:37;;;;;;;6.35;1.17;;;;;;;;;;5073482;28;20048;-87
2023/03/13 07:55:04;;;;;;;2.85;0.90;;;;;;;;;;5072915;28;20048;-85
2023/03/13 07:57:32;;;;;;;2.63;0.80;;;;;;;;;;5055428;28;20071;-85
2023/03/13 08:00:00;;;;;;;1.50;0.55;;;;;;;;;;5073024;28;20131;-86
2023/03/13 08:02:27;;;;;;;3.45;0.60;;;;;;;;;;5072902;28;20419;-87
2023/03/13 08:04:54;;;;;;;0.93;0.60;;;;;;;;;;5072635;28;20110;-84
2023/03/13 08:07:24;;;;;;;1.40;0.50;;;;;;;;;;5055710;28;20048;-83
2023/03/13 08:09:51;;;;;;;1.80;0.52;;;;;;;;;;5072831;28;20047;-87
2023/03/13 08:12:19;;;;;;;2.20;0.90;;;;;;;;;;5058810;28;20052;-86
2023/03/13 08:14:46;;;;;;;3.38;0.90;;;;;;;;;;5059069;28;20048;-86
2023/03/13 08:17:13;;;;;;;0.50;0.50;;;;;;;;;;5059293;28;20054;-86
2023/03/13 08:19:41;;;;;;;4.05;0.63;;;;;;;;;;5078379;28;20055;-84
2023/03/13 08:22:08;;;;;;;0.52;0.40;;;;;;;;;;5073892;28;20131;-85
2023/03/13 08:24:35;;;;;;;0.60;0.60;;;;;;;;;;5076227;28;20049;-84
2023/03/13 08:27:02;;;;;;;0.63;0.50;;;;;;;;;;5058420;28;20052;-84
2023/03/13 08:29:29;;;;;;;2.00;0.60;;;;;;;;;;5076113;28;20053;-84
2023/03/13 08:31:56;;;;;;;1.02;0.45;;;;;;;;;;5058384;28;20048;-85
2023/03/13 08:34:24;;;;;;;1.75;0.63;;;;;;;;;;5058632;28;20068;-85
2023/03/13 08:36:51;;;;;;;1.50;0.57;;;;;;;;;;5076185;28;20040;-85
2023/03/13 08:39:19;;;;;;;0.50;0.40;;;;;;;;;;5076374;28;20139;-83
2023/03/13 08:41:47;;;;;;;0.82;0.38;;;;;;;;;;5058328;28;20056;-85
2023/03/13 08:44:15;;;;;;;1.77;0.40;;;;;;;;;;5057884;28;20084;-84
2023/03/13 08:46:43;;;;;;;0.28;0.28;;;;;;;;;;5057900;28;20423;-84
2023/03/13 08:49:11;;;;;;;0.22;0.20;;;;;;;;;;5057962;28;20543;-85
2023/03/13 08:51:39;;;;;;;1.25;0.47;;;;;;;;;;5058813;28;20143;-84
2023/03/13 08:54:06;;;;;;;1.55;0.45;;;;;;;;;;5058429;28;20053;-84
2023/03/13 08:56:33;;;;;;;1.48;0.30;;;;;;;;;;5057910;28;20495;-83
2023/03/13 08:59:03;;;;;;;1.15;0.32;;;;;;;;;;5057623;28;20074;-84
2023/03/13 09:01:32;;;;;;;0.47;0.15;;;;;;;;;;5057815;28;20044;-84
2023/03/13 09:03:59;;;;;;;0.55;0.20;;;;;;;;;;5056232;28;20053;-85
2023/03/13 09:06:30;;;;;;;1.48;0.28;;;;;;;;;;5074382;28;20048;-84
2023/03/13 09:08:57;;;;;;;0.95;0.20;;;;;;;;;;5057016;28;20084;-87
2023/03/13 09:11:25;;;;;;;0.73;0.30;;;;;;;;;;5057018;28;20056;-84
2023/03/13 09:13:54;;;;;;;1.17;0.40;;;;;;;;;;5056426;28;20083;-85
2023/03/13 09:16:22;;;;;;;0.20;0.20;;;;;;;;;;5074228;28;20518;-84
2023/03/13 09:18:50;;;;;;;0.93;0.20;;;;;;;;;;5056851;28;20051;-84
2023/03/13 09:21:19;;;;;;;0.30;0.20;;;;;;;;;;5057440;28;20106;-84
2023/03/13 09:23:46;;;;;;;0.70;0.70;;;;;;;;;;5074189;28;20045;-84
2023/03/13 09:26:14;;;;;;;1.90;0.80;;;;;;;;;;5056981;28;20480;-84
2023/03/13 09:28:41;;;;;;;2.45;2.25;;;;;;;;;;5057095;28;20052;-84
2023/03/13 09:31:10;;;;;;;0.63;0.63;;;;;;;;;;5057241;28;20060;-84
2023/03/13 09:33:37;;;;;;;1.05;0.70;;;;;;;;;;5067901;28;20131;-83
2023/03/13 09:36:05;;;;;;;1.73;0.30;;;;;;;;;;5063066;28;20048;-84
2023/03/13 09:38:33;;;;;;;1.27;1.15;;;;;;;;;;5075169;28;20471;-85
2023/03/13 09:41:06;;;;;;;23.85;1.52;;;;;;;;;;5075069;28;20315;-85
2023/03/13 09:43:47;;;;;;;9.85;1.27;;;;;;;;;;5057204;28;20044;-84
2023/03/13 09:46:31;;;;;;;0.85;0.20;;;;;;;;;;5057006;28;20392;-84
2023/03/13 09:49:00;;;;;;;1.50;0.30;;;;;;;;;;5056757;28;20135;-84
2023/03/13 09:51:30;;;;;;;0.85;0.32;;;;;;;;;;5057265;28;20106;-84
2023/03/13 09:54:08;;;;;;;0.55;0.40;;;;;;;;;;5056689;28;20143;-85
2023/03/13 09:56:42;;;;;;;2.33;0.55;;;;;;;;;;5074551;28;20045;-85
2023/03/13 09:59:22;;;;;;;0.73;0.73;;;;;;;;;;5056874;28;20055;-87
2023/03/13 10:01:50;;;;;;;0.77;0.40;;;;;;;;;;5056559;28;20052;-83
2023/03/13 10:04:17;;;;;;;1.73;0.63;;;;;;;;;;5056507;28;20052;-85
2023/03/13 10:06:45;;;;;;;0.63;0.45;;;;;;;;;;5074040;28;20150;-84
2023/03/13 10:09:16;;;;;;;1.02;0.40;;;;;;;;;;5056654;28;20048;-87
2023/03/13 10:11:57;;;;;;;0.68;0.38;;;;;;;;;;5056980;28;20116;-87
2023/03/13 10:14:47;;;;;;;0.47;0.47;;;;;;;;;;5056672;28;20127;-84
2023/03/13 10:17:32;;;;;;;1.73;0.80;;;;;;;;;;5056863;28;20056;-84
2023/03/13 10:20:20;;;;;;;3.85;0.40;;;;;;;;;;5056648;28;20135;-85
2023/03/13 10:22:47;;;;;;;0.70;0.30;;;;;;;;;;5040864;28;20044;-86
2023/03/13 10:25:27;;;;;;;0.40;0.30;;;;;;;;;;5056525;28;20523;-85
2023/03/13 10:27:54;;;;;;;2.67;0.50;;;;;;;;;;5054809;28;20580;-84
2023/03/13 10:30:34;;;;;;;0.20;0.20;;;;;;;;;;5056750;28;20487;-86
2023/03/13 10:33:18;;;;;;;1.48;0.32;;;;;;;;;;5073982;28;20567;-85
2023/03/13 10:35:45;;;;;;;;;;;;;;;;;;5056928;28;20056;-92
2023/03/13 10:38:12;;;;;;;1.65;0.30;;;;;;;;;;5056329;28;20065;-84
2023/03/13 10:40:41;;;;;;;3.03;0.63;;;;;;;;;;5056342;28;20059;-86
2023/03/13 10:43:28;;;;;;;0.95;0.57;;;;;;;;;;5056129;28;20056;-85
2023/03/13 10:45:55;;;;;;;0.70;0.50;;;;;;;;;;5058751;28;20040;-86
2023/03/13 10:48:24;;;;;;;0.50;0.47;;;;;;;;;;5087734;28;20050;-86
2023/03/13 10:50:52;;;;;;;1.67;0.60;;;;;;;;;;5074107;28;20045;-85
2023/03/13 10:53:33;;;;;;;0.98;0.40;;;;;;;;;;5073963;28;20535;-88
2023/03/13 10:56:03;;;;;;;1.02;0.75;;;;;;;;;;5055846;28;20128;-86
2023/03/13 10:58:35;;;;;;;1.17;0.60;;;;;;;;;;5056082;28;20048;-86
2023/03/13 11:01:30;;;;;;;0.65;0.60;;;;;;;;;;5056133;28;20424;-86
2023/03/13 11:03:59;;;;;;;1.75;0.50;;;;;;;;;;5053352;28;20055;-90
2023/03/13 11:06:26;;;;;;;2.67;0.65;;;;;;;;;;5073329;28;20053;-85
2023/03/13 11:09:02;;;;;;;0.75;0.60;;;;;;;;;;5055855;28;20054;-87
2023/03/13 11:11:29;;;;;;;1.23;0.80;;;;;;;;;;5073347;28;20496;-84
2023/03/13 11:14:07;;;;;;;0.63;0.40;;;;;;;;;;5055805;28;20052;-85
2023/03/13 11:16:38;;;;;;;4.32;0.70;;;;;;;;;;5055561;28;20048;-86
2023/03/13 11:19:24;;;;;;;0.43;0.38;;;;;;;;;;5055553;28;20044;-85
2023/03/13 11:22:14;;;;;;;0.63;0.50;;;;;;;;;;5055838;28;20044;-86
2023/03/13 11:24:48;;;;;;;1.73;0.60;;;;;;;;;;5073452;28;20059;-86
2023/03/13 11:27:27;;;;;;;1.75;0.60;;;;;;;;;;5072997;28;20058;-85
2023/03/13 11:29:57;;;;;;;1.58;0.57;;;;;;;;;;5055462;28;20079;-85
2023/03/13 11:32:47;;;;;;;1.65;0.63;;;;;;;;;;5073285;28;20060;-89
2023/03/13 11:35:27;;;;;;;4.38;0.80;;;;;;;;;;5072907;28;20044;-85
2023/03/13 11:37:56;;;;;;;1.08;0.50;;;;;;;;;;5055395;28;20051;-87
2023/03/13 11:40:32;;;;;;;2.00;0.55;;;;;;;;;;5055685;28;20416;-86
2023/03/13 11:43:26;;;;;;;2.35;0.80;;;;;;;;;;5055426;28;20056;-86
2023/03/13 11:45:53;;;;;;;1.10;0.55;;;;;;;;;;5017833;28;20511;-86
2023/03/13 11:48:26;;;;;;;0.95;0.55;;;;;;;;;;5055239;28;20475;-85
2023/03/13 11:51:12;;;;;;;1.73;0.70;;;;;;;;;;5055440;28;20045;-86
2023/03/13 11:53:46;;;;;;;1.10;0.80;;;;;;;;;;5055579;28;20103;-85
2023/03/13 11:56:17;;;;;;;0.70;0.70;;;;;;;;;;5055064;28;20051;-88
2023/03/13 11:58:50;;;;;;;1.02;0.60;;;;;;;;;;5055172;28;20049;-86
2023/03/13 12:01:17;;;;;;;;;;;;;;;;;;5072252;28;20136;-85
2023/03/13 12:03:56;;;;;;;0.95;0.77;;;;;;;;;;5073254;28;19920;-86
2023/03/13 12:06:35;;;;;;;1.42;0.75;;;;;;;;;;5055030;28;20071;-85
2023/03/13 12:09:15;;;;;;;2.50;0.70;;;;;;;;;;5054879;28;20040;-86
2023/03/13 12:11:51;;;;;;;2.20;0.95;;;;;;;;;;5055123;28;20048;-86
2023/03/13 12:14:24;;;;;;;5.63;1.00;;;;;;;;;;5054910;28;20051;-86
2023/03/13 12:16:54;;;;;;;3.58;1.00;;;;;;;;;;5072487;28;20048;-84
2023/03/13 12:19:26;;;;;;;3.03;0.80;;;;;;;;;;5055250;28;20055;-86
2023/03/13 12:21:56;;;;;;;1.95;0.93;;;;;;;;;;5054690;28;20546;-85
2023/03/13 12:24:30;;;;;;;1.75;1.10;;;;;;;;;;5055093;28;20084;-87
2023/03/13 12:27:17;;;;;;;2.75;1.00;;;;;;;;;;5055039;28;20056;-85
2023/03/13 12:29:51;;;;;;;1.35;0.80;;;;;;;;;;5055245;28;20087;-90
2023/03/13 12:32:34;;;;;;;1.38;1.13;;;;;;;;;;5054964;28;20084;-85
2023/03/13 12:35:04;;;;;;;2.45;1.50;;;;;;;;;;5072820;28;20049;-87
2023/03/13 12:37:47;;;;;;;1.10;0.70;;;;;;;;;;5055887;28;20048;-86
2023/03/13 12:40:33;;;;;;;11.30;1.45;;;;;;;;;;5055054;28;20052;-86
2023/03/13 12:43:05;;;;;;;1.35;0.70;;;;;;;;;;5072770;28;20431;-89
2023/03/13 12:45:35;;;;;;;1.25;0.90;;;;;;;;;;5072896;28;20044;-86
2023/03/13 12:48:08;;;;;;;0.90;0.90;;;;;;;;;;5072495;28;20506;-86
2023/03/13 12:50:50;;;;;;;2.00;1.15;;;;;;;;;;5072810;28;20052;-86
2023/03/13 12:53:24;;;;;;;1.77;0.73;;;;;;;;;;5054995;28;20049;-85
2023/03/13 12:55:57;;;;;;;1.08;1.02;;;;;;;;;;5054882;28;20090;-86
2023/03/13 12:58:25;;;;;;;1.63;0.98;;;;;;;;;;5074488;28;20049;-85
2023/03/13 13:00:52;;;;;;;3.08;1.10;;;;;;;;;;5058435;28;20047;-86
2023/03/13 13:03:24;;;;;;;2.97;1.17;;;;;;;;;;5058468;28;20088;-84
2023/03/13 13:05:58;;;;;;;1.55;0.90;;;;;;;;;;5058030;28;20052;-85
2023/03/13 13:08:26;;;;;;;1.85;1.35;;;;;;;;;;5058155;28;20135;-86
2023/03/13 13:10:53;;;;;;;1.08;1.00;;;;;;;;;;5058398;28;20075;-86
2023/03/13 13:13:29;;;;;;;2.47;1.20;;;;;;;;;;5072483;28;20047;-84
2023/03/13 13:16:02;;;;;;;1.33;1.23;;;;;;;;;;5059144;28;20056;-85
2023/03/13 13:18:31;;;;;;;2.00;1.20;;;;;;;;;;5057868;28;20044;-86
2023/03/13 13:21:01;;;;;;;1.38;1.27;;;;;;;;;;5057752;28;20059;-87
2023/03/13 13:23:32;;;;;;;1.30;1.20;;;;;;;;;;5075511;28;20045;-86
2023/03/13 13:26:19;;;;;;;1.13;0.82;;;;;;;;;;5057633;28;20135;-86
2023/03/13 13:28:46;;;;;;;7.35;1.10;;;;;;;;;;5057557;28;20048;-86
2023/03/13 13:31:32;;;;;;;1.67;1.10;;;;;;;;;;5057916;28;20476;-86
2023/03/13 13:33:59;;;;;;;1.08;1.00;;;;;;;;;;5057364;28;20076;-85
2023/03/13 13:36:27;;;;;;;1.42;0.98;;;;;;;;;;5075413;28;20135;-86
2023/03/13 13:38:55;;;;;;;1.20;1.10;;;;;;;;;;5075181;28;20082;-86
2023/03/13 13:41:24;;;;;;;3.47;1.15;;;;;;;;;;5075300;28;20048;-85
2023/03/13 13:44:11;;;;;;;1.10;0.90;;;;;;;;;;5074887;28;20083;-85
2023/03/13 13:46:44;;;;;;;1.35;0.93;;;;;;;;;;5057332;28;20067;-86
2023/03/13 13:49:16;;;;;;;1.45;1.10;;;;;;;;;;5074934;28;20056;-85
2023/03/13 13:52:03;;;;;;;1.38;0.90;;;;;;;;;;5057484;28;20056;-86
2023/03/13 13:54:54;;;;;;;1.88;0.95;;;;;;;;;;5056825;28;20052;-86
2023/03/13 13:57:23;;;;;;;2.25;1.00;;;;;;;;;;5074895;28;20060;-86
2023/03/13 14:00:09;;;;;;;1.10;0.98;;;;;;;;;;5057588;28;20044;-86
2023/03/13 14:02:44;;;;;;;3.30;1.13;;;;;;;;;;5057109;28;20106;-86
2023/03/13 14:05:27;;;;;;;1.63;1.10;;;;;;;;;;5074496;28;20049;-87
2023/03/13 14:08:13;;;;;;;6.60;3.53;;;;;;;;;;5056549;28;20059;-86
2023/03/13 14:10:41;;;;;;;2.38;1.27;;;;;;;;;;5057006;28;20048;-85
2023/03/13 14:13:11;;;;;;;1.73;1.38;;;;;;;;;;5074513;28;20056;-86
2023/03/13 14:15:41;;;;;;;2.55;1.20;;;;;;;;;;5056648;28;20049;-85
2023/03/13 14:18:13;;;;;;;3.03;1.35;;;;;;;;;;5074535;28;20084;-86
2023/03/13 14:20:49;;;;;;;2.78;1.00;;;;;;;;;;5056800;28;20052;-85
2023/03/13 14:23:28;;;;;;;1.85;0.80;;;;;;;;;;5074492;28;20044;-86
2023/03/13 14:25:55;;;;;;;1.23;1.17;;;;;;;;;;5063365;28;20100;-85
2023/03/13 14:28:26;;;;;;;1.05;0.90;;;;;;;;;;5083852;28;20522;-84
2023/03/13 14:30:55;;;;;;;1.15;0.95;;;;;;;;;;5073600;28;20051;-85
2023/03/13 14:33:22;;;;;;;1.23;1.15;;;;;;;;;;5056694;28;20053;-85
2023/03/13 14:35:50;;;;;;;5.55;1.40;;;;;;;;;;5056508;28;20090;-86
2023/03/13 14:38:19;;;;;;;10.20;1.40;;;;;;;;;;5055859;28;20044;-86
2023/03/13 14:40:46;;;;;;;4.13;1.15;;;;;;;;;;5073111;28;20055;-86
2023/03/13 14:43:32;;;;;;;5.20;1.50;;;;;;;;;;5055636;28;20047;-86
2023/03/13 14:46:00;;;;;;;4.10;1.58;;;;;;;;;;5056200;28;20106;-85
2023/03/13 14:48:34;;;;;;;2.88;1.20;;;;;;;;;;5073797;28;20052;-85
2023/03/13 14:51:02;;;;;;;1.38;1.27;;;;;;;;;;5055977;28;20048;-85
2023/03/13 14:53:52;;;;;;;2.97;1.10;;;;;;;;;;5072448;28;20186;-85
2023/03/13 14:56:19;;;;;;;4.35;2.00;;;;;;;;;;5055751;28;20079;-85